createdAt,value
2022-12-05T00:00:01.056Z,17.47
2022-12-05T00:02:49.627Z,20.13
2022-12-05T00:05:40.961Z,17.27
2022-12-05T00:08:29.466Z,18.60
2022-12-05T00:11:20.355Z,18.57
2022-12-05T00:14:10.949Z,18.40
2022-12-05T00:16:59.782Z,18.70
2022-12-05T00:19:53.608Z,18.30
2022-12-05T00:22:45.064Z,18.87
2022-12-05T00:25:33.623Z,18.90
2022-12-05T00:28:22.069Z,18.83
2022-12-05T00:31:13.132Z,16.90
2022-12-05T00:34:02.232Z,18.10
2022-12-05T00:36:51.456Z,18.70
2022-12-05T00:39:40.182Z,17.33
2022-12-05T00:42:28.664Z,19.53
2022-12-05T00:45:17.284Z,19.37
2022-12-05T00:48:07.271Z,17.70
2022-12-05T00:51:01.633Z,19.40
2022-12-05T00:53:50.220Z,20.40
2022-12-05T00:56:39.029Z,19.90
2022-12-05T00:59:27.489Z,20.50
2022-12-05T01:02:15.996Z,20.60
2022-12-05T01:05:06.732Z,19.60
2022-12-05T01:07:55.212Z,20.23
2022-12-05T01:10:43.661Z,20.47
2022-12-05T01:13:32.709Z,20.77
2022-12-05T01:16:23.228Z,21.40
2022-12-05T01:19:13.347Z,21.37
2022-12-05T01:22:03.142Z,21.77
2022-12-05T01:24:51.635Z,21.50
2022-12-05T01:27:40.372Z,21.80
2022-12-05T01:30:28.880Z,24.23
2022-12-05T01:33:17.670Z,22.87
2022-12-05T01:36:07.751Z,22.73
2022-12-05T01:38:58.081Z,22.50
2022-12-05T01:41:47.962Z,22.20
2022-12-05T01:45:02.994Z,23.93
2022-12-05T01:47:51.501Z,21.10
2022-12-05T01:50:40.030Z,21.17
2022-12-05T01:53:29.628Z,21.90
2022-12-05T01:56:19.632Z,24.37
2022-12-05T01:59:10.690Z,22.50
2022-12-05T02:01:59.424Z,23.80
2022-12-05T02:04:58.069Z,23.67
2022-12-05T02:07:47.559Z,24.90
2022-12-05T02:10:40.319Z,23.80
2022-12-05T02:14:00.757Z,23.27
2022-12-05T02:16:55.037Z,23.43
2022-12-05T02:20:05.494Z,22.00
2022-12-05T02:23:13.656Z,20.20
2022-12-05T02:26:19.327Z,20.63
2022-12-05T02:29:35.393Z,19.83
2022-12-05T02:32:36.734Z,20.10
2022-12-05T02:35:33.600Z,19.90
2022-12-05T02:38:28.326Z,19.33
2022-12-05T02:41:20.416Z,19.60
2022-12-05T02:44:12.638Z,20.20
2022-12-05T02:47:01.564Z,21.10
2022-12-05T02:49:53.951Z,18.37
2022-12-05T02:52:43.208Z,20.30
2022-12-05T02:55:32.371Z,21.40
2022-12-05T02:58:24.196Z,21.23
2022-12-05T03:01:13.022Z,19.57
2022-12-05T03:04:03.496Z,19.30
2022-12-05T03:06:55.445Z,18.10
2022-12-05T03:09:46.907Z,18.03
2022-12-05T03:12:39.807Z,18.83
2022-12-05T03:15:31.325Z,19.67
2022-12-05T03:18:24.071Z,19.00
2022-12-05T03:21:19.356Z,18.70
2022-12-05T03:24:11.622Z,18.20
2022-12-05T03:27:08.651Z,17.97
2022-12-05T03:29:58.802Z,17.80
2022-12-05T03:32:52.696Z,20.40
2022-12-05T03:35:44.939Z,18.67
2022-12-05T03:38:36.503Z,18.20
2022-12-05T03:41:31.222Z,17.93
2022-12-05T03:44:21.977Z,17.93
2022-12-05T03:47:14.042Z,18.07
2022-12-05T03:50:06.123Z,16.60
2022-12-05T03:53:19.110Z,18.80
2022-12-05T03:56:09.766Z,17.20
2022-12-05T03:59:05.775Z,19.40
2022-12-05T04:01:55.673Z,17.87
2022-12-05T04:04:47.954Z,17.50
2022-12-05T04:07:40.434Z,19.33
2022-12-05T04:10:31.430Z,20.00
2022-12-05T04:13:23.269Z,20.30
2022-12-05T04:16:34.385Z,18.40
2022-12-05T04:19:26.328Z,17.37
2022-12-05T04:22:13.810Z,19.73
2022-12-05T04:25:21.503Z,18.33
2022-12-05T04:28:22.256Z,18.77
2022-12-05T04:31:15.049Z,19.40
2022-12-05T04:34:05.720Z,19.27
2022-12-05T04:36:57.578Z,18.37
2022-12-05T04:39:50.002Z,20.03
2022-12-05T04:42:39.324Z,18.53
2022-12-05T04:45:28.366Z,18.00
2022-12-05T04:48:18.748Z,17.87
2022-12-05T04:51:09.144Z,18.10
2022-12-05T04:54:00.449Z,18.87
2022-12-05T04:56:50.091Z,18.10
2022-12-05T04:59:38.560Z,18.83
2022-12-05T05:02:31.799Z,18.87
2022-12-05T05:05:21.902Z,17.93
2022-12-05T05:08:18.392Z,18.77
2022-12-05T05:11:12.209Z,18.37
2022-12-05T05:14:01.217Z,17.00
2022-12-05T05:16:49.728Z,18.27
2022-12-05T05:19:38.197Z,19.00
2022-12-05T05:22:27.974Z,16.50
2022-12-05T05:25:16.604Z,18.80
2022-12-05T05:28:05.517Z,17.50
2022-12-05T05:30:53.969Z,18.60
2022-12-05T05:33:42.571Z,18.83
2022-12-05T05:36:31.045Z,16.73
2022-12-05T05:39:20.931Z,18.60
2022-12-05T05:42:09.439Z,20.57
2022-12-05T05:44:57.914Z,18.50
2022-12-05T05:47:46.723Z,17.33
2022-12-05T05:50:35.198Z,18.50
2022-12-05T05:53:23.698Z,19.40
2022-12-05T05:56:20.050Z,18.20
2022-12-05T05:59:10.653Z,17.17
2022-12-05T06:01:59.099Z,19.10
2022-12-05T06:04:47.818Z,18.70
2022-12-05T06:07:36.391Z,17.90
2022-12-05T06:10:24.896Z,19.83
2022-12-05T06:13:14.765Z,16.20
2022-12-05T06:16:03.629Z,17.17
2022-12-05T06:18:52.893Z,16.60
2022-12-05T06:21:41.425Z,16.70
2022-12-05T06:24:30.086Z,18.63
2022-12-05T06:27:18.531Z,16.60
2022-12-05T06:30:09.819Z,18.20
2022-12-05T06:32:58.220Z,17.20
2022-12-05T06:35:47.147Z,17.33
2022-12-05T06:38:40.436Z,17.57
2022-12-05T06:41:30.359Z,17.27
2022-12-05T06:44:18.809Z,17.93
2022-12-05T06:47:08.617Z,18.50
2022-12-05T06:49:57.258Z,18.13
2022-12-05T06:52:46.102Z,17.43
2022-12-05T06:55:34.523Z,19.33
2022-12-05T06:58:22.985Z,18.33
2022-12-05T07:01:30.766Z,17.30
2022-12-05T07:04:24.123Z,18.00
2022-12-05T07:07:13.472Z,18.90
2022-12-05T07:10:01.949Z,20.67
2022-12-05T07:12:50.423Z,19.50
2022-12-05T07:15:38.940Z,22.47
2022-12-05T07:18:27.692Z,21.13
2022-12-05T07:21:17.651Z,18.93
2022-12-05T07:24:06.659Z,17.73
2022-12-05T07:26:55.110Z,17.40
2022-12-05T07:29:43.568Z,15.43
2022-12-05T07:32:33.346Z,18.40
2022-12-05T07:35:21.826Z,16.97
2022-12-05T07:38:11.725Z,18.10
2022-12-05T07:41:00.463Z,16.57
2022-12-05T07:43:49.015Z,18.43
2022-12-05T07:46:38.255Z,18.87
2022-12-05T07:49:26.840Z,17.90
2022-12-05T07:52:15.331Z,17.30
2022-12-05T07:55:05.881Z,18.00
2022-12-05T07:57:54.381Z,17.63
2022-12-05T08:00:43.004Z,18.20
2022-12-05T08:03:31.622Z,15.87
2022-12-05T08:06:21.642Z,16.40
2022-12-05T08:09:10.263Z,16.33
2022-12-05T08:12:00.066Z,17.30
2022-12-05T08:14:48.507Z,15.80
2022-12-05T08:17:36.990Z,16.50
2022-12-05T08:20:25.479Z,17.30
2022-12-05T08:23:13.995Z,16.20
2022-12-05T08:26:04.024Z,17.43
2022-12-05T08:28:55.408Z,17.17
2022-12-05T08:31:47.217Z,16.37
2022-12-05T08:34:35.762Z,17.00
2022-12-05T08:37:24.455Z,17.73
2022-12-05T08:40:13.708Z,17.40
2022-12-05T08:43:02.263Z,16.77
2022-12-05T08:45:53.455Z,16.40
2022-12-05T08:48:42.223Z,17.70
2022-12-05T08:51:30.860Z,16.90
2022-12-05T08:54:19.477Z,17.80
2022-12-05T08:57:08.196Z,17.57
2022-12-05T08:59:56.917Z,19.00
2022-12-05T09:02:51.799Z,17.47
2022-12-05T09:05:40.406Z,19.47
2022-12-05T09:08:28.865Z,17.57
2022-12-05T09:11:19.214Z,19.60
2022-12-05T09:14:07.844Z,19.70
2022-12-05T09:16:56.320Z,17.17
2022-12-05T09:19:46.238Z,19.10
2022-12-05T09:22:34.967Z,20.13
2022-12-05T09:25:23.429Z,21.40
2022-12-05T09:28:11.942Z,20.30
2022-12-05T09:31:02.310Z,18.93
2022-12-05T09:33:51.720Z,19.47
2022-12-05T09:36:41.555Z,21.77
2022-12-05T09:39:30.034Z,20.27
2022-12-05T09:42:35.014Z,20.23
2022-12-05T09:45:25.689Z,19.87
2022-12-05T09:48:16.250Z,21.13
2022-12-05T09:51:04.905Z,18.50
2022-12-05T09:53:55.184Z,19.43
2022-12-05T09:56:45.313Z,22.10
2022-12-05T09:59:33.797Z,20.40
2022-12-05T10:02:29.594Z,20.60
2022-12-05T10:05:20.952Z,20.00
2022-12-05T10:08:15.654Z,19.13
2022-12-05T10:11:11.567Z,20.03
2022-12-05T10:14:04.079Z,18.70
2022-12-05T10:16:55.734Z,17.93
2022-12-05T10:19:46.912Z,18.30
2022-12-05T10:22:41.867Z,19.67
2022-12-05T10:25:33.555Z,18.10
2022-12-05T10:28:30.250Z,19.50
2022-12-05T10:31:22.775Z,18.97
2022-12-05T10:34:15.003Z,18.67
2022-12-05T10:37:11.596Z,18.60
2022-12-05T10:40:00.484Z,19.87
2022-12-05T10:42:50.053Z,17.97
2022-12-05T10:45:43.449Z,17.87
2022-12-05T10:48:36.490Z,18.60
2022-12-05T10:51:34.075Z,17.37
2022-12-05T10:54:27.622Z,17.37
2022-12-05T10:57:23.930Z,20.40
2022-12-05T11:00:15.408Z,17.50
2022-12-05T11:03:06.628Z,17.03
2022-12-05T11:05:57.612Z,17.13
2022-12-05T11:09:07.973Z,19.43
2022-12-05T11:12:07.802Z,17.83
2022-12-05T11:14:59.313Z,15.30
2022-12-05T11:17:48.235Z,15.83
2022-12-05T11:20:40.588Z,15.40
2022-12-05T11:23:30.591Z,16.33
2022-12-05T11:26:21.333Z,16.90
2022-12-05T11:29:29.827Z,17.27
2022-12-05T11:32:20.486Z,17.20
2022-12-05T11:35:12.776Z,17.20
2022-12-05T11:38:04.839Z,16.70
2022-12-05T11:40:56.140Z,17.10
2022-12-05T11:44:16.953Z,17.90
2022-12-05T11:47:15.240Z,17.30
2022-12-05T11:50:23.578Z,17.10
2022-12-05T11:53:31.232Z,18.10
2022-12-05T11:56:29.292Z,17.53
2022-12-05T11:59:31.428Z,17.33
2022-12-05T12:02:30.646Z,17.50
2022-12-05T12:05:21.303Z,16.27
2022-12-05T12:08:20.137Z,16.50
2022-12-05T12:11:13.635Z,18.23
2022-12-05T12:14:07.558Z,17.00
2022-12-05T12:17:06.909Z,17.40
2022-12-05T12:20:10.449Z,17.20
2022-12-05T12:23:11.381Z,15.70
2022-12-05T12:26:08.162Z,17.40
2022-12-05T12:29:03.378Z,16.30
2022-12-05T12:32:00.651Z,15.10
2022-12-05T12:35:05.091Z,15.10
2022-12-05T12:38:10.021Z,16.10
2022-12-05T12:41:05.288Z,15.63
2022-12-05T12:44:02.731Z,14.60
2022-12-05T12:46:54.166Z,15.43
2022-12-05T12:49:53.665Z,16.33
2022-12-05T12:53:03.247Z,15.90
2022-12-05T12:55:57.166Z,14.50
2022-12-05T12:58:53.117Z,16.17
2022-12-05T13:01:44.003Z,14.27
2022-12-05T13:04:40.334Z,15.60
2022-12-05T13:07:33.797Z,14.90
2022-12-05T13:10:26.800Z,14.43
2022-12-05T13:13:19.466Z,14.50
2022-12-05T13:16:11.934Z,13.97
2022-12-05T13:19:00.907Z,13.60
2022-12-05T13:21:49.495Z,13.70
2022-12-05T13:24:38.181Z,13.37
2022-12-05T13:27:28.178Z,13.87
2022-12-05T13:30:18.753Z,14.20
2022-12-05T13:33:10.255Z,13.60
2022-12-05T13:36:22.974Z,15.30
2022-12-05T13:39:38.123Z,14.03
2022-12-05T13:42:30.277Z,13.80
2022-12-05T13:45:20.475Z,13.33
2022-12-05T13:48:21.379Z,14.17
2022-12-05T13:51:12.687Z,13.67
2022-12-05T13:54:05.600Z,14.13
2022-12-05T13:56:58.489Z,14.50
2022-12-05T14:00:04.779Z,15.60
2022-12-05T14:02:55.541Z,13.80
2022-12-05T14:05:50.360Z,14.57
2022-12-05T14:08:55.069Z,13.63
2022-12-05T14:12:27.759Z,13.40
2022-12-05T14:15:33.684Z,13.70
2022-12-05T14:18:24.579Z,12.63
2022-12-05T14:21:17.503Z,13.53
2022-12-05T14:24:09.953Z,13.27
2022-12-05T14:27:07.453Z,12.10
2022-12-05T14:30:02.660Z,13.03
2022-12-05T14:32:52.210Z,12.90
2022-12-05T14:35:46.074Z,11.10
2022-12-05T14:38:38.520Z,9.03
2022-12-05T14:41:33.456Z,8.57
2022-12-05T14:44:22.443Z,9.03
2022-12-05T14:47:20.656Z,7.17
2022-12-05T14:50:32.988Z,7.20
2022-12-05T14:53:42.835Z,6.50
2022-12-05T14:56:33.560Z,6.77
2022-12-05T14:59:25.945Z,6.97
2022-12-05T15:02:21.661Z,6.20
2022-12-05T15:05:22.498Z,6.57
2022-12-05T15:08:13.306Z,6.13
2022-12-05T15:11:03.747Z,7.13
2022-12-05T15:13:52.365Z,5.83
2022-12-05T15:16:43.504Z,6.30
2022-12-05T15:19:40.676Z,5.60
2022-12-05T15:22:29.296Z,6.80
2022-12-05T15:25:29.868Z,6.90
2022-12-05T15:28:20.820Z,5.73
2022-12-05T15:31:13.515Z,5.10
2022-12-05T15:34:05.587Z,5.47
2022-12-05T15:36:59.310Z,5.10
2022-12-05T15:39:54.464Z,4.40
2022-12-05T15:42:44.970Z,4.77
2022-12-05T15:45:34.987Z,4.33
2022-12-05T15:48:23.972Z,5.03
2022-12-05T15:51:12.733Z,4.67
2022-12-05T15:54:05.974Z,4.70
2022-12-05T15:56:57.927Z,5.00
2022-12-05T15:59:49.954Z,4.60
2022-12-05T16:02:43.700Z,5.80
2022-12-05T16:05:35.544Z,5.63
2022-12-05T16:08:24.711Z,4.93
2022-12-05T16:11:14.727Z,5.47
2022-12-05T16:14:05.032Z,5.27
2022-12-05T16:17:00.530Z,5.43
2022-12-05T16:19:50.530Z,5.87
2022-12-05T16:22:45.115Z,5.57
2022-12-05T16:25:35.740Z,6.23
2022-12-05T16:28:25.140Z,6.43
2022-12-05T16:31:17.910Z,5.53
2022-12-05T16:34:08.874Z,6.37
2022-12-05T16:36:59.109Z,6.30
2022-12-05T16:39:48.150Z,5.60
2022-12-05T16:42:37.863Z,5.20
2022-12-05T16:45:40.705Z,5.83
2022-12-05T16:48:30.846Z,5.90
2022-12-05T16:51:22.209Z,5.50
2022-12-05T16:54:12.195Z,6.37
2022-12-05T16:57:01.871Z,6.60
2022-12-05T16:59:50.963Z,6.60
2022-12-05T17:02:39.454Z,6.40
2022-12-05T17:05:28.679Z,6.37
2022-12-05T17:08:17.301Z,5.50
2022-12-05T17:11:08.627Z,6.50
2022-12-05T17:13:58.341Z,6.97
2022-12-05T17:16:47.004Z,8.90
2022-12-05T17:19:35.545Z,8.87
2022-12-05T17:22:26.073Z,7.80
2022-12-05T17:25:20.005Z,8.20
2022-12-05T17:28:09.985Z,7.20
2022-12-05T17:30:58.568Z,7.57
2022-12-05T17:33:50.436Z,8.80
2022-12-05T17:36:39.023Z,8.07
2022-12-05T17:39:28.871Z,10.10
2022-12-05T17:42:17.725Z,11.23
2022-12-05T17:45:10.647Z,9.77
2022-12-05T17:47:59.346Z,9.90
2022-12-05T17:50:49.399Z,8.77
2022-12-05T17:53:38.546Z,7.90
2022-12-05T17:56:27.355Z,7.60
2022-12-05T17:59:15.875Z,8.03
2022-12-05T18:02:06.597Z,6.70
2022-12-05T18:04:55.167Z,6.03
2022-12-05T18:07:45.337Z,6.67
2022-12-05T18:10:34.222Z,8.43
2022-12-05T18:13:22.801Z,9.97
2022-12-05T18:16:12.643Z,8.83
2022-12-05T18:19:02.898Z,8.20
2022-12-05T18:21:52.296Z,9.07
2022-12-05T18:24:41.651Z,9.83
2022-12-05T18:27:34.352Z,10.70
2022-12-05T18:30:24.009Z,10.90
2022-12-05T18:33:13.815Z,16.40
2022-12-05T18:36:11.872Z,15.13
2022-12-05T18:39:01.691Z,13.93
2022-12-05T18:41:51.603Z,14.63
2022-12-05T18:44:41.106Z,13.00
2022-12-05T18:47:30.008Z,12.70
2022-12-05T18:50:19.339Z,12.27
2022-12-05T18:53:10.404Z,13.23
2022-12-05T18:56:21.442Z,13.07
2022-12-05T18:59:15.997Z,14.80
2022-12-05T19:02:06.479Z,13.53
2022-12-05T19:04:56.541Z,14.00
2022-12-05T19:07:46.989Z,23.93
2022-12-05T19:10:39.142Z,14.10
2022-12-05T19:13:29.202Z,14.50
2022-12-05T19:16:19.303Z,13.30
2022-12-05T19:19:10.099Z,14.37
2022-12-05T19:21:59.574Z,15.77
2022-12-05T19:24:49.711Z,14.07
2022-12-05T19:27:41.055Z,13.30
2022-12-05T19:30:29.821Z,14.57
2022-12-05T19:33:18.434Z,20.50
2022-12-05T19:36:11.393Z,14.43
2022-12-05T19:39:01.551Z,12.87
2022-12-05T19:41:50.236Z,13.40
2022-12-05T19:44:40.787Z,15.93
2022-12-05T19:47:30.786Z,15.60
2022-12-05T19:50:19.507Z,17.00
2022-12-05T19:53:10.127Z,16.27
2022-12-05T19:56:01.564Z,17.37
2022-12-05T19:58:50.861Z,16.20
2022-12-05T20:01:41.335Z,15.13
2022-12-05T20:04:29.941Z,16.20
2022-12-05T20:07:19.126Z,13.67
2022-12-05T20:10:08.370Z,26.17
2022-12-05T20:12:57.154Z,16.67
2022-12-05T20:15:45.728Z,38.30
2022-12-05T20:18:37.528Z,17.77
2022-12-05T20:21:28.268Z,18.33
2022-12-05T20:24:17.044Z,17.37
2022-12-05T20:27:07.317Z,20.80
2022-12-05T20:29:56.460Z,18.80
2022-12-05T20:32:45.615Z,18.50
2022-12-05T20:35:37.973Z,17.93
2022-12-05T20:38:26.448Z,16.70
2022-12-05T20:41:16.661Z,15.37
2022-12-05T20:44:07.695Z,16.23
2022-12-05T20:46:56.367Z,16.20
2022-12-05T20:49:44.899Z,20.10
2022-12-05T20:52:35.546Z,20.73
2022-12-05T20:55:24.053Z,18.60
2022-12-05T20:58:12.695Z,20.50
2022-12-05T21:01:01.687Z,17.63
2022-12-05T21:03:51.998Z,18.53
2022-12-05T21:06:42.877Z,18.03
2022-12-05T21:09:35.017Z,19.20
2022-12-05T21:12:23.958Z,18.47
2022-12-05T21:15:13.076Z,17.03
2022-12-05T21:18:02.457Z,19.70
2022-12-05T21:20:57.652Z,19.40
2022-12-05T21:23:47.798Z,17.90
2022-12-05T21:26:38.896Z,22.33
2022-12-05T21:29:27.820Z,24.00
2022-12-05T21:32:16.469Z,19.53
2022-12-05T21:35:06.807Z,20.10
2022-12-05T21:37:56.078Z,21.13
2022-12-05T21:40:44.790Z,21.37
2022-12-05T21:43:36.741Z,21.60
2022-12-05T21:46:25.974Z,22.17
2022-12-05T21:49:14.523Z,20.20
2022-12-05T21:52:03.421Z,22.00
2022-12-05T21:54:52.862Z,19.70
2022-12-05T21:57:41.701Z,20.20
2022-12-05T22:00:31.725Z,17.47
2022-12-05T22:03:20.552Z,16.63
2022-12-05T22:06:10.678Z,11.87
2022-12-05T22:08:59.120Z,11.60
2022-12-05T22:11:47.791Z,10.30
2022-12-05T22:14:36.380Z,8.40
2022-12-05T22:17:26.376Z,8.40
2022-12-05T22:20:15.653Z,7.57
2022-12-05T22:23:04.374Z,7.90
2022-12-05T22:25:57.638Z,7.50
2022-12-05T22:28:46.183Z,8.63
2022-12-05T22:31:34.833Z,6.53
2022-12-05T22:34:24.787Z,7.30
2022-12-05T22:37:13.363Z,7.00
2022-12-05T22:40:02.219Z,7.30
2022-12-05T22:42:51.349Z,7.13
2022-12-05T22:45:39.829Z,7.83
2022-12-05T22:48:28.264Z,7.10
2022-12-05T22:51:19.499Z,7.00
2022-12-05T22:54:08.030Z,8.97
2022-12-05T22:56:56.452Z,8.93
2022-12-05T22:59:44.908Z,9.27
2022-12-05T23:02:33.460Z,8.73
2022-12-05T23:05:22.943Z,8.30
2022-12-05T23:08:13.447Z,8.73
2022-12-05T23:11:03.328Z,9.23
2022-12-05T23:13:54.775Z,9.43
2022-12-05T23:16:46.710Z,9.37
2022-12-05T23:19:35.190Z,8.50
2022-12-05T23:22:23.656Z,8.33
2022-12-05T23:25:13.521Z,13.50
2022-12-05T23:28:01.971Z,13.10
2022-12-05T23:30:50.383Z,14.03
2022-12-05T23:33:39.422Z,14.40
2022-12-05T23:36:27.870Z,15.30
2022-12-05T23:39:16.734Z,15.40
2022-12-05T23:42:10.836Z,15.97
2022-12-05T23:45:02.120Z,16.20
2022-12-05T23:47:50.658Z,17.00
2022-12-05T23:50:39.090Z,15.23
2022-12-05T23:53:27.945Z,15.63
2022-12-05T23:56:18.180Z,15.03
2022-12-05T23:59:09.070Z,15.20
